createdAt,value
2023-02-06T00:00:23.798Z,3.46
2023-02-06T00:01:23.810Z,3.58
2023-02-06T00:02:23.884Z,3.58
2023-02-06T00:03:23.795Z,3.50
2023-02-06T00:04:23.777Z,3.50
2023-02-06T00:05:23.812Z,3.52
2023-02-06T00:06:23.769Z,3.39
2023-02-06T00:07:23.763Z,3.44
2023-02-06T00:08:23.781Z,3.47
2023-02-06T00:09:23.737Z,3.40
2023-02-06T00:10:23.730Z,3.33
2023-02-06T00:11:23.729Z,3.50
2023-02-06T00:12:23.729Z,3.28
2023-02-06T00:13:23.717Z,3.36
2023-02-06T00:14:23.697Z,3.43
2023-02-06T00:15:23.693Z,3.30
2023-02-06T00:16:23.686Z,3.34
2023-02-06T00:17:23.701Z,3.50
2023-02-06T00:18:23.677Z,3.50
2023-02-06T00:19:23.669Z,3.46
2023-02-06T00:20:23.656Z,3.58
2023-02-06T00:21:23.676Z,3.53
2023-02-06T00:22:23.679Z,3.49
2023-02-06T00:23:23.659Z,3.49
2023-02-06T00:24:23.637Z,3.43
2023-02-06T00:25:23.636Z,3.39
2023-02-06T00:26:23.644Z,3.21
2023-02-06T00:27:23.613Z,3.27
2023-02-06T00:28:23.629Z,3.31
2023-02-06T00:29:23.611Z,3.30
2023-02-06T00:30:23.643Z,3.21
2023-02-06T00:31:23.609Z,3.31
2023-02-06T00:32:23.643Z,3.28
2023-02-06T00:33:23.594Z,3.28
2023-02-06T00:34:23.571Z,3.23
2023-02-06T00:35:23.574Z,3.09
2023-02-06T00:36:23.584Z,3.20
2023-02-06T00:37:23.549Z,3.05
2023-02-06T00:38:23.578Z,3.18
2023-02-06T00:39:23.540Z,3.34
2023-02-06T00:40:23.544Z,3.30
2023-02-06T00:41:23.558Z,3.27
2023-02-06T00:42:23.521Z,3.24
2023-02-06T00:43:23.530Z,3.30
2023-02-06T00:44:23.517Z,3.31
2023-02-06T00:45:23.523Z,3.42
2023-02-06T00:46:23.596Z,3.46
2023-02-06T00:47:23.490Z,3.50
2023-02-06T00:48:23.494Z,3.39
2023-02-06T00:49:23.503Z,3.34
2023-02-06T00:50:23.471Z,3.34
2023-02-06T00:51:23.474Z,3.31
2023-02-06T00:52:23.466Z,3.31
2023-02-06T00:53:23.449Z,3.30
2023-02-06T00:54:23.462Z,3.33
2023-02-06T00:55:23.428Z,3.46
2023-02-06T00:56:23.443Z,3.44
2023-02-06T00:57:23.430Z,3.44
2023-02-06T00:58:23.422Z,3.31
2023-02-06T00:59:23.417Z,3.31
2023-02-06T01:00:23.406Z,3.44
2023-02-06T01:01:23.470Z,3.42
2023-02-06T01:02:23.416Z,3.44
2023-02-06T01:03:23.398Z,3.36
2023-02-06T01:04:23.373Z,3.40
2023-02-06T01:05:23.375Z,3.52
2023-02-06T01:06:23.357Z,3.52
2023-02-06T01:07:23.355Z,3.46
2023-02-06T01:08:23.354Z,3.43
2023-02-06T01:09:23.349Z,3.42
2023-02-06T01:10:23.334Z,3.52
2023-02-06T01:11:23.319Z,3.61
2023-02-06T01:12:23.323Z,3.58
2023-02-06T01:13:23.311Z,3.52
2023-02-06T01:14:23.317Z,3.46
2023-02-06T01:15:23.289Z,3.54
2023-02-06T01:16:23.314Z,3.53
2023-02-06T01:17:23.285Z,3.47
2023-02-06T01:18:23.275Z,3.58
2023-02-06T01:19:23.274Z,3.60
2023-02-06T01:20:23.268Z,3.60
2023-02-06T01:21:23.262Z,3.57
2023-02-06T01:22:23.251Z,3.67
2023-02-06T01:23:23.233Z,3.64
2023-02-06T01:24:24.234Z,3.58
2023-02-06T01:25:23.228Z,3.49
2023-02-06T01:26:23.236Z,3.46
2023-02-06T01:27:23.278Z,3.50
2023-02-06T01:28:23.216Z,3.53
2023-02-06T01:29:23.205Z,3.57
2023-02-06T01:30:23.219Z,3.57
2023-02-06T01:31:23.233Z,3.40
2023-02-06T01:32:23.181Z,3.52
2023-02-06T01:33:23.179Z,3.39
2023-02-06T01:34:23.263Z,3.42
2023-02-06T01:35:23.164Z,3.44
2023-02-06T01:36:23.162Z,3.47
2023-02-06T01:37:23.149Z,3.43
2023-02-06T01:38:23.134Z,3.52
2023-02-06T01:39:24.134Z,3.39
2023-02-06T01:40:23.134Z,3.42
2023-02-06T01:41:23.127Z,3.54
2023-02-06T01:42:23.134Z,3.46
2023-02-06T01:43:23.110Z,3.53
2023-02-06T01:44:23.113Z,3.57
2023-02-06T01:45:23.094Z,3.65
2023-02-06T01:46:23.107Z,3.64
2023-02-06T01:47:23.114Z,3.61
2023-02-06T01:48:23.075Z,3.68
2023-02-06T01:49:23.066Z,3.65
2023-02-06T01:50:23.050Z,3.70
2023-02-06T01:51:23.050Z,3.67
2023-02-06T01:52:23.051Z,3.62
2023-02-06T01:53:23.065Z,3.67
2023-02-06T01:54:23.030Z,3.70
2023-02-06T01:55:23.035Z,3.72
2023-02-06T01:56:23.031Z,3.68
2023-02-06T01:57:23.014Z,3.61
2023-02-06T01:58:23.030Z,3.64
2023-02-06T01:59:23.048Z,3.65
2023-02-06T02:00:22.994Z,3.67
2023-02-06T02:01:22.994Z,3.57
2023-02-06T02:02:22.990Z,3.60
2023-02-06T02:03:22.978Z,3.52
2023-02-06T02:04:22.976Z,3.60
2023-02-06T02:05:22.961Z,3.62
2023-02-06T02:06:22.946Z,3.61
2023-02-06T02:07:22.946Z,3.67
2023-02-06T02:08:22.953Z,3.64
2023-02-06T02:09:23.036Z,3.68
2023-02-06T02:10:22.939Z,3.79
2023-02-06T02:11:22.984Z,3.72
2023-02-06T02:12:22.924Z,3.78
2023-02-06T02:13:23.036Z,3.72
2023-02-06T02:14:22.910Z,3.76
2023-02-06T02:15:22.908Z,3.79
2023-02-06T02:16:22.950Z,3.89
2023-02-06T02:17:23.894Z,3.79
2023-02-06T02:18:22.886Z,3.78
2023-02-06T02:19:22.903Z,3.79
2023-02-06T02:20:22.876Z,3.71
2023-02-06T02:21:22.866Z,3.86
2023-02-06T02:22:22.849Z,3.79
2023-02-06T02:23:22.852Z,3.86
2023-02-06T02:24:22.863Z,3.82
2023-02-06T02:25:22.838Z,3.88
2023-02-06T02:26:22.829Z,3.82
2023-02-06T02:27:22.825Z,3.79
2023-02-06T02:28:22.826Z,3.75
2023-02-06T02:29:22.811Z,3.71
2023-02-06T02:30:22.841Z,3.75
2023-02-06T02:31:22.814Z,3.64
2023-02-06T02:32:22.785Z,3.67
2023-02-06T02:33:22.790Z,3.71
2023-02-06T02:34:22.773Z,3.67
2023-02-06T02:35:22.809Z,3.67
2023-02-06T02:36:22.786Z,3.64
2023-02-06T02:37:22.758Z,3.62
2023-02-06T02:38:22.738Z,3.71
2023-02-06T02:39:22.750Z,3.76
2023-02-06T02:40:22.738Z,3.64
2023-02-06T02:41:22.737Z,3.70
2023-02-06T02:42:22.754Z,3.72
2023-02-06T02:43:22.711Z,3.82
2023-02-06T02:44:22.709Z,3.67
2023-02-06T02:45:22.717Z,3.72
2023-02-06T02:46:22.707Z,3.75
2023-02-06T02:47:22.680Z,3.72
2023-02-06T02:48:22.680Z,3.68
2023-02-06T02:49:22.676Z,3.79
2023-02-06T02:50:22.658Z,3.76
2023-02-06T02:51:22.674Z,3.72
2023-02-06T02:52:22.652Z,3.68
2023-02-06T02:53:22.639Z,3.67
2023-02-06T02:54:22.632Z,3.64
2023-02-06T02:55:22.621Z,3.65
2023-02-06T02:56:22.640Z,3.64
2023-02-06T02:57:22.644Z,3.64
2023-02-06T02:58:22.612Z,3.60
2023-02-06T02:59:22.593Z,3.50
2023-02-06T03:00:22.613Z,3.61
2023-02-06T03:01:22.594Z,3.62
2023-02-06T03:02:22.636Z,3.54
2023-02-06T03:03:22.586Z,3.58
2023-02-06T03:04:22.573Z,3.61
2023-02-06T03:05:22.565Z,3.62
2023-02-06T03:06:22.546Z,3.53
2023-02-06T03:07:22.567Z,3.68
2023-02-06T03:08:22.535Z,3.61
2023-02-06T03:09:22.539Z,3.64
2023-02-06T03:10:22.539Z,3.68
2023-02-06T03:11:22.506Z,3.67
2023-02-06T03:12:22.550Z,3.62
2023-02-06T03:13:22.558Z,3.70
2023-02-06T03:14:22.506Z,3.72
2023-02-06T03:15:22.487Z,3.67
2023-02-06T03:16:22.540Z,3.62
2023-02-06T03:17:22.517Z,3.68
2023-02-06T03:18:22.478Z,3.68
2023-02-06T03:19:22.474Z,3.67
2023-02-06T03:20:22.467Z,3.60
2023-02-06T03:21:22.463Z,3.62
2023-02-06T03:22:22.462Z,3.61
2023-02-06T03:23:22.452Z,3.61
2023-02-06T03:24:22.435Z,3.58
2023-02-06T03:25:22.436Z,3.47
2023-02-06T03:26:22.449Z,3.49
2023-02-06T03:27:22.426Z,3.46
2023-02-06T03:28:22.429Z,3.50
2023-02-06T03:29:22.478Z,3.43
2023-02-06T03:30:22.425Z,3.40
2023-02-06T03:31:22.444Z,3.46
2023-02-06T03:32:23.387Z,3.33
2023-02-06T03:33:22.407Z,3.44
2023-02-06T03:34:22.372Z,3.46
2023-02-06T03:35:22.382Z,3.52
2023-02-06T03:36:22.356Z,3.49
2023-02-06T03:37:22.340Z,3.49
2023-02-06T03:38:22.344Z,3.52
2023-02-06T03:39:22.348Z,3.39
2023-02-06T03:40:22.332Z,3.33
2023-02-06T03:41:22.320Z,3.30
2023-02-06T03:42:22.305Z,3.34
2023-02-06T03:43:22.308Z,3.23
2023-02-06T03:44:22.301Z,3.24
2023-02-06T03:45:22.404Z,3.18
2023-02-06T03:46:22.313Z,3.28
2023-02-06T03:47:22.296Z,3.27
2023-02-06T03:48:22.266Z,3.25
2023-02-06T03:49:22.270Z,3.30
2023-02-06T03:50:22.259Z,3.33
2023-02-06T03:51:22.284Z,3.20
2023-02-06T03:52:22.232Z,3.21
2023-02-06T03:53:22.234Z,3.24
2023-02-06T03:54:22.227Z,3.20
2023-02-06T03:55:22.230Z,3.21
2023-02-06T03:56:22.249Z,3.15
2023-02-06T03:57:22.197Z,3.23
2023-02-06T03:58:24.451Z,3.23
2023-02-06T03:59:22.207Z,3.18
2023-02-06T04:00:22.189Z,3.18
2023-02-06T04:01:23.299Z,3.27
2023-02-06T04:02:22.202Z,3.24
2023-02-06T04:03:22.176Z,3.20
2023-02-06T04:04:22.162Z,3.25
2023-02-06T04:05:22.152Z,3.25
2023-02-06T04:06:22.148Z,3.23
2023-02-06T04:07:22.208Z,3.34
2023-02-06T04:08:22.128Z,3.40
2023-02-06T04:09:22.128Z,3.30
2023-02-06T04:10:22.211Z,3.39
2023-02-06T04:11:22.116Z,3.42
2023-02-06T04:12:22.120Z,3.39
2023-02-06T04:13:22.133Z,3.34
2023-02-06T04:14:22.099Z,3.33
2023-02-06T04:15:22.087Z,3.34
2023-02-06T04:16:22.153Z,3.39
2023-02-06T04:17:40.730Z,3.31
2023-02-06T04:18:24.082Z,3.27
2023-02-06T04:19:22.102Z,3.33
2023-02-06T04:20:22.053Z,3.30
2023-02-06T04:21:22.098Z,3.31
2023-02-06T04:22:22.062Z,3.34
2023-02-06T04:23:22.045Z,3.39
2023-02-06T04:24:22.030Z,3.28
2023-02-06T04:25:22.022Z,3.31
2023-02-06T04:26:22.016Z,3.28
2023-02-06T04:27:21.996Z,3.20
2023-02-06T04:28:22.078Z,3.27
2023-02-06T04:29:21.992Z,3.27
2023-02-06T04:30:22.042Z,3.16
2023-02-06T04:31:21.996Z,3.31
2023-02-06T04:32:21.976Z,3.13
2023-02-06T04:33:22.083Z,3.23
2023-02-06T04:34:21.973Z,3.21
2023-02-06T04:35:21.938Z,3.18
2023-02-06T04:36:21.959Z,3.12
2023-02-06T04:37:21.942Z,3.05
2023-02-06T04:38:21.940Z,2.98
2023-02-06T04:39:21.925Z,2.98
2023-02-06T04:40:21.922Z,3.00
2023-02-06T04:41:21.916Z,2.97
2023-02-06T04:42:21.904Z,2.89
2023-02-06T04:43:21.899Z,2.87
2023-02-06T04:44:21.880Z,2.92
2023-02-06T04:45:22.875Z,2.92
2023-02-06T04:46:21.924Z,2.87
2023-02-06T04:47:21.867Z,2.92
2023-02-06T04:48:21.865Z,2.94
2023-02-06T04:49:21.857Z,2.87
2023-02-06T04:50:21.852Z,2.88
2023-02-06T04:51:21.850Z,2.89
2023-02-06T04:52:21.851Z,2.82
2023-02-06T04:53:21.852Z,2.88
2023-02-06T04:54:21.834Z,2.87
2023-02-06T04:55:21.833Z,2.84
2023-02-06T04:56:21.823Z,2.82
2023-02-06T04:57:21.804Z,2.79
2023-02-06T04:58:21.800Z,2.81
2023-02-06T04:59:21.795Z,2.87
2023-02-06T05:00:21.781Z,2.84
2023-02-06T05:01:21.804Z,2.79
2023-02-06T05:02:21.809Z,2.87
2023-02-06T05:03:21.759Z,2.85
2023-02-06T05:04:21.753Z,2.88
2023-02-06T05:05:21.876Z,2.81
2023-02-06T05:06:21.761Z,2.89
2023-02-06T05:07:21.734Z,2.82
2023-02-06T05:08:21.720Z,2.82
2023-02-06T05:09:21.710Z,2.91
2023-02-06T05:10:21.702Z,2.82
2023-02-06T05:11:21.715Z,2.92
2023-02-06T05:12:21.690Z,2.82
2023-02-06T05:13:21.682Z,2.94
2023-02-06T05:14:21.679Z,2.95
2023-02-06T05:15:21.675Z,2.87
2023-02-06T05:16:21.705Z,2.87
2023-02-06T05:17:21.669Z,2.97
2023-02-06T05:18:21.654Z,2.88
2023-02-06T05:19:21.642Z,2.87
2023-02-06T05:20:21.632Z,2.84
2023-02-06T05:21:21.661Z,2.89
2023-02-06T05:22:21.633Z,2.79
2023-02-06T05:23:21.629Z,2.76
2023-02-06T05:24:21.612Z,2.74
2023-02-06T05:25:21.600Z,2.73
2023-02-06T05:26:21.614Z,2.73
2023-02-06T05:27:21.587Z,2.76
2023-02-06T05:28:21.594Z,2.70
2023-02-06T05:29:21.583Z,2.71
2023-02-06T05:30:21.564Z,2.74
2023-02-06T05:31:21.651Z,2.66
2023-02-06T05:32:21.564Z,2.71
2023-02-06T05:33:21.555Z,2.74
2023-02-06T05:34:21.558Z,2.71
2023-02-06T05:35:21.536Z,2.81
2023-02-06T05:36:21.524Z,2.71
2023-02-06T05:37:21.522Z,2.76
2023-02-06T05:38:21.537Z,2.74
2023-02-06T05:39:21.509Z,2.77
2023-02-06T05:40:21.507Z,2.73
2023-02-06T05:41:21.522Z,2.81
2023-02-06T05:42:21.493Z,2.89
2023-02-06T05:43:21.618Z,2.88
2023-02-06T05:44:21.674Z,2.84
2023-02-06T05:45:21.483Z,2.76
2023-02-06T05:46:21.559Z,2.82
2023-02-06T05:47:21.480Z,2.77
2023-02-06T05:48:21.464Z,2.70
2023-02-06T05:49:21.461Z,2.81
2023-02-06T05:50:21.463Z,2.76
2023-02-06T05:51:21.457Z,2.67
2023-02-06T05:52:21.442Z,2.73
2023-02-06T05:53:21.423Z,2.70
2023-02-06T05:54:21.456Z,2.77
2023-02-06T05:55:21.415Z,2.71
2023-02-06T05:56:21.406Z,2.69
2023-02-06T05:57:21.404Z,2.74
2023-02-06T05:58:21.394Z,2.70
2023-02-06T05:59:21.409Z,2.76
2023-02-06T06:00:21.405Z,2.74
2023-02-06T06:01:21.388Z,2.71
2023-02-06T06:02:21.369Z,2.84
2023-02-06T06:03:21.366Z,2.79
2023-02-06T06:04:21.480Z,2.77
2023-02-06T06:05:21.378Z,2.84
2023-02-06T06:06:21.349Z,2.82
2023-02-06T06:07:21.360Z,2.79
2023-02-06T06:08:21.388Z,2.89
2023-02-06T06:09:21.337Z,2.88
2023-02-06T06:10:21.327Z,2.94
2023-02-06T06:11:21.321Z,3.00
2023-02-06T06:12:21.335Z,3.03
2023-02-06T06:13:21.315Z,3.12
2023-02-06T06:14:21.292Z,3.02
2023-02-06T06:15:21.296Z,3.07
2023-02-06T06:16:21.319Z,3.03
2023-02-06T06:17:21.330Z,3.16
2023-02-06T06:18:21.280Z,3.16
2023-02-06T06:19:21.268Z,3.13
2023-02-06T06:20:21.254Z,3.23
2023-02-06T06:21:21.252Z,3.15
2023-02-06T06:22:21.251Z,3.20
2023-02-06T06:23:21.233Z,3.18
2023-02-06T06:24:21.228Z,3.33
2023-02-06T06:25:21.231Z,3.30
2023-02-06T06:26:21.212Z,3.20
2023-02-06T06:27:21.233Z,3.23
2023-02-06T06:28:21.268Z,3.28
2023-02-06T06:29:21.199Z,3.28
2023-02-06T06:30:21.195Z,3.23
2023-02-06T06:31:21.237Z,3.25
2023-02-06T06:32:21.183Z,3.23
2023-02-06T06:33:21.171Z,3.20
2023-02-06T06:34:21.167Z,3.13
2023-02-06T06:35:21.164Z,3.21
2023-02-06T06:36:21.154Z,3.18
2023-02-06T06:37:21.166Z,3.24
2023-02-06T06:38:21.142Z,3.23
2023-02-06T06:39:21.136Z,3.28
2023-02-06T06:40:21.130Z,3.21
2023-02-06T06:41:21.121Z,3.21
2023-02-06T06:42:21.118Z,3.21
2023-02-06T06:43:21.138Z,3.24
2023-02-06T06:44:21.090Z,3.34
2023-02-06T06:45:21.139Z,3.27
2023-02-06T06:46:21.085Z,3.27
2023-02-06T06:47:21.179Z,3.34
2023-02-06T06:48:21.116Z,3.23
2023-02-06T06:49:21.064Z,3.27
2023-02-06T06:50:21.046Z,3.30
2023-02-06T06:51:21.041Z,3.30
2023-02-06T06:52:25.222Z,3.24
2023-02-06T06:53:22.041Z,3.24
2023-02-06T06:54:21.038Z,3.25
2023-02-06T06:55:21.023Z,3.21
2023-02-06T06:56:21.010Z,3.23
2023-02-06T06:57:21.156Z,3.25
2023-02-06T06:58:21.004Z,3.21
2023-02-06T06:59:20.990Z,3.28
2023-02-06T07:00:20.986Z,3.21
2023-02-06T07:01:21.036Z,3.21
2023-02-06T07:02:20.975Z,3.20
2023-02-06T07:03:21.000Z,3.20
2023-02-06T07:04:20.976Z,3.16
2023-02-06T07:05:20.946Z,3.16
2023-02-06T07:06:20.989Z,3.27
2023-02-06T07:07:20.968Z,3.25
2023-02-06T07:08:20.943Z,3.27
2023-02-06T07:09:20.938Z,3.20
2023-02-06T07:10:20.923Z,3.28
2023-02-06T07:11:20.928Z,3.25
2023-02-06T07:12:20.926Z,3.25
2023-02-06T07:13:20.905Z,3.28
2023-02-06T07:14:20.906Z,3.24
2023-02-06T07:15:20.886Z,3.33
2023-02-06T07:16:20.915Z,3.30
2023-02-06T07:17:20.878Z,3.36
2023-02-06T07:18:20.875Z,3.28
2023-02-06T07:19:20.859Z,3.27
2023-02-06T07:20:20.861Z,3.31
2023-02-06T07:21:20.855Z,3.30
2023-02-06T07:22:20.842Z,3.36
2023-02-06T07:23:21.842Z,3.31
2023-02-06T07:24:20.831Z,3.30
2023-02-06T07:25:20.818Z,3.33
2023-02-06T07:26:20.822Z,3.30
2023-02-06T07:27:20.815Z,3.25
2023-02-06T07:28:20.858Z,3.33
2023-02-06T07:29:20.822Z,3.33
2023-02-06T07:30:20.834Z,3.28
2023-02-06T07:31:20.834Z,3.28
2023-02-06T07:32:20.779Z,3.27
2023-02-06T07:33:20.778Z,3.28
2023-02-06T07:34:20.768Z,3.30
2023-02-06T07:35:20.759Z,3.24
2023-02-06T07:36:20.855Z,3.28
2023-02-06T07:37:20.748Z,3.30
2023-02-06T07:38:20.760Z,3.31
2023-02-06T07:39:20.753Z,3.30
2023-02-06T07:40:20.726Z,3.34
2023-02-06T07:41:20.725Z,3.33
2023-02-06T07:42:20.720Z,3.36
2023-02-06T07:43:20.699Z,3.44
2023-02-06T07:44:20.718Z,3.43
2023-02-06T07:45:20.698Z,3.49
2023-02-06T07:46:20.761Z,3.46
2023-02-06T07:47:20.683Z,3.53
2023-02-06T07:48:20.666Z,3.61
2023-02-06T07:49:20.688Z,3.49
2023-02-06T07:50:20.674Z,3.60
2023-02-06T07:51:20.651Z,3.60
2023-02-06T07:52:20.646Z,3.61
2023-02-06T07:53:20.638Z,3.76
2023-02-06T07:54:21.031Z,3.67
2023-02-06T07:55:21.645Z,3.75
2023-02-06T07:56:20.610Z,4.00
2023-02-06T07:57:20.614Z,4.28
2023-02-06T07:58:20.617Z,4.62
2023-02-06T07:59:20.612Z,4.83
2023-02-06T08:00:20.598Z,4.83
2023-02-06T08:01:20.690Z,4.86
2023-02-06T08:02:20.582Z,4.88
2023-02-06T08:03:20.566Z,4.83
2023-02-06T08:04:20.595Z,4.77
2023-02-06T08:05:20.562Z,4.86
2023-02-06T08:06:21.829Z,4.76
2023-02-06T08:07:20.552Z,4.80
2023-02-06T08:08:20.588Z,4.69
2023-02-06T08:09:20.543Z,4.65
2023-02-06T08:10:20.526Z,4.55
2023-02-06T08:11:20.521Z,4.62
2023-02-06T08:12:20.526Z,4.64
2023-02-06T08:13:20.513Z,4.51
2023-02-06T08:14:20.502Z,4.57
2023-02-06T08:15:20.498Z,4.46
2023-02-06T08:16:20.519Z,4.51
2023-02-06T08:17:20.501Z,4.42
2023-02-06T08:18:20.471Z,4.46
2023-02-06T08:19:20.473Z,4.47
2023-02-06T08:20:20.484Z,4.54
2023-02-06T08:21:20.454Z,4.64
2023-02-06T08:22:20.462Z,4.72
2023-02-06T08:23:20.972Z,4.76
2023-02-06T08:24:21.438Z,4.84
2023-02-06T08:25:20.440Z,4.96
2023-02-06T08:26:20.425Z,5.19
2023-02-06T08:27:20.429Z,5.16
2023-02-06T08:28:20.434Z,5.27
2023-02-06T08:29:20.399Z,5.34
2023-02-06T08:30:20.407Z,5.55
2023-02-06T08:31:20.605Z,5.46
2023-02-06T08:32:20.374Z,5.43
2023-02-06T08:33:20.376Z,5.48
2023-02-06T08:34:20.365Z,5.53
2023-02-06T08:35:20.358Z,5.56
2023-02-06T08:36:20.352Z,5.66
2023-02-06T08:37:20.345Z,5.70
2023-02-06T08:38:20.366Z,5.70
2023-02-06T08:39:20.341Z,5.74
2023-02-06T08:40:20.325Z,5.70
2023-02-06T08:41:20.317Z,5.78
2023-02-06T08:42:20.302Z,5.73
2023-02-06T08:43:20.306Z,5.68
2023-02-06T08:44:20.289Z,5.91
2023-02-06T08:45:20.301Z,6.04
2023-02-06T08:46:20.313Z,6.03
2023-02-06T08:47:20.278Z,5.98
2023-02-06T08:48:20.309Z,5.98
2023-02-06T08:49:20.328Z,6.22
2023-02-06T08:50:20.286Z,6.21
2023-02-06T08:51:20.255Z,6.21
2023-02-06T08:52:20.235Z,6.29
2023-02-06T08:53:21.230Z,6.29
2023-02-06T08:54:20.247Z,6.46
2023-02-06T08:55:20.237Z,6.40
2023-02-06T08:56:20.248Z,6.47
2023-02-06T08:57:20.210Z,6.62
2023-02-06T08:58:20.200Z,6.61
2023-02-06T08:59:20.206Z,6.48
2023-02-06T09:00:20.194Z,6.36
2023-02-06T09:01:20.252Z,6.32
2023-02-06T09:02:20.317Z,6.10
2023-02-06T09:03:20.158Z,6.04
2023-02-06T09:04:20.156Z,6.03
2023-02-06T09:05:20.191Z,5.82
2023-02-06T09:06:20.150Z,5.77
2023-02-06T09:07:20.145Z,5.68
2023-02-06T09:08:20.150Z,5.73
2023-02-06T09:09:20.134Z,5.73
2023-02-06T09:10:27.509Z,5.74
2023-02-06T09:11:21.118Z,5.64
2023-02-06T09:12:20.100Z,5.63
2023-02-06T09:13:20.126Z,5.48
2023-02-06T09:14:20.094Z,5.50
2023-02-06T09:15:20.079Z,5.50
2023-02-06T09:16:20.184Z,5.52
2023-02-06T09:17:20.068Z,5.67
2023-02-06T09:18:20.053Z,5.78
2023-02-06T09:19:20.061Z,5.83
2023-02-06T09:20:20.042Z,5.81
2023-02-06T09:21:20.153Z,5.73
2023-02-06T09:22:20.034Z,5.81
2023-02-06T09:23:20.015Z,6.01
2023-02-06T09:24:21.012Z,6.11
2023-02-06T09:25:20.001Z,6.11
2023-02-06T09:26:19.997Z,6.10
2023-02-06T09:27:19.989Z,6.36
2023-02-06T09:28:20.071Z,6.87
2023-02-06T09:29:19.994Z,7.32
2023-02-06T09:30:20.039Z,7.77
2023-02-06T09:31:19.977Z,7.96
2023-02-06T09:32:19.946Z,7.96
2023-02-06T09:33:19.948Z,7.81
2023-02-06T09:34:19.931Z,7.92
2023-02-06T09:35:19.942Z,7.79
2023-02-06T09:36:19.924Z,7.59
2023-02-06T09:37:19.957Z,7.32
2023-02-06T09:38:19.902Z,7.19
2023-02-06T09:39:19.904Z,6.94
2023-02-06T09:40:19.959Z,6.89
2023-02-06T09:41:19.891Z,6.81
2023-02-06T09:42:19.894Z,6.71
2023-02-06T09:43:19.878Z,6.86
2023-02-06T09:44:19.882Z,6.81
2023-02-06T09:45:19.866Z,6.91
2023-02-06T09:46:19.951Z,8.17
2023-02-06T09:47:19.850Z,9.82
2023-02-06T09:48:19.854Z,10.21
2023-02-06T09:49:19.850Z,11.54
2023-02-06T09:50:19.857Z,12.87
2023-02-06T09:51:19.817Z,13.96
2023-02-06T09:52:19.838Z,14.71
2023-02-06T09:53:19.805Z,15.52
2023-02-06T09:54:19.798Z,15.59
2023-02-06T09:55:19.798Z,16.15
2023-02-06T09:56:19.793Z,16.31
2023-02-06T09:57:19.786Z,16.11
2023-02-06T09:58:19.775Z,15.39
2023-02-06T09:59:19.814Z,15.38
2023-02-06T10:00:19.767Z,16.20
2023-02-06T10:01:19.773Z,16.78
2023-02-06T10:02:19.756Z,17.26
2023-02-06T10:03:20.128Z,17.57
2023-02-06T10:04:19.791Z,17.92
2023-02-06T10:05:19.790Z,18.50
2023-02-06T10:06:19.776Z,19.08
2023-02-06T10:07:19.711Z,19.53
2023-02-06T10:08:19.819Z,19.40
2023-02-06T10:09:19.737Z,19.57
2023-02-06T10:10:19.714Z,19.79
2023-02-06T10:11:19.678Z,20.15
2023-02-06T10:12:19.712Z,20.61
2023-02-06T10:13:19.676Z,21.02
2023-02-06T10:14:19.662Z,20.99
2023-02-06T10:15:19.703Z,20.96
2023-02-06T10:16:19.722Z,20.90
2023-02-06T10:17:19.656Z,21.05
2023-02-06T10:18:19.643Z,21.57
2023-02-06T10:19:19.630Z,21.74
2023-02-06T10:20:19.620Z,21.72
2023-02-06T10:21:19.626Z,21.67
2023-02-06T10:22:19.654Z,22.07
2023-02-06T10:23:19.606Z,22.44
2023-02-06T10:24:19.596Z,22.77
2023-02-06T10:25:19.596Z,23.07
2023-02-06T10:26:19.594Z,22.86
2023-02-06T10:27:19.584Z,22.69
2023-02-06T10:28:19.577Z,21.76
2023-02-06T10:29:19.565Z,21.97
2023-02-06T10:30:19.560Z,22.16
2023-02-06T10:31:19.689Z,22.56
2023-02-06T10:32:19.642Z,23.12
2023-02-06T10:33:25.618Z,22.72
2023-02-06T10:34:21.541Z,22.74
2023-02-06T10:35:19.530Z,22.99
2023-02-06T10:36:19.531Z,22.64
2023-02-06T10:37:19.527Z,23.02
2023-02-06T10:38:19.501Z,23.04
2023-02-06T10:39:19.500Z,23.26
2023-02-06T10:40:19.505Z,23.35
2023-02-06T10:41:19.484Z,23.31
2023-02-06T10:42:21.724Z,23.58
2023-02-06T10:43:19.483Z,23.76
2023-02-06T10:44:19.464Z,24.19
2023-02-06T10:45:21.040Z,24.41
2023-02-06T10:46:20.736Z,24.42
2023-02-06T10:47:19.457Z,24.44
2023-02-06T10:48:19.453Z,24.59
2023-02-06T10:49:19.453Z,24.80
2023-02-06T10:50:19.446Z,24.98
2023-02-06T10:51:19.526Z,24.53
2023-02-06T10:52:19.459Z,24.67
2023-02-06T10:53:19.469Z,24.97
2023-02-06T10:54:19.442Z,25.53
2023-02-06T10:55:19.427Z,25.20
2023-02-06T10:56:19.418Z,25.25
2023-02-06T10:57:19.401Z,25.27
2023-02-06T10:58:19.402Z,25.06
2023-02-06T10:59:19.390Z,25.30
2023-02-06T11:00:19.375Z,25.72
2023-02-06T11:01:26.127Z,25.79
2023-02-06T11:02:20.462Z,25.56
2023-02-06T11:03:19.362Z,25.67
2023-02-06T11:04:19.365Z,25.72
2023-02-06T11:05:19.354Z,25.77
2023-02-06T11:06:19.354Z,25.61
2023-02-06T11:07:19.345Z,24.98
2023-02-06T11:08:19.324Z,25.02
2023-02-06T11:09:19.329Z,25.32
2023-02-06T11:10:19.481Z,25.47
2023-02-06T11:11:19.345Z,25.82
2023-02-06T11:12:19.297Z,25.50
2023-02-06T11:13:19.391Z,25.19
2023-02-06T11:14:19.300Z,24.97
2023-02-06T11:15:19.311Z,25.07
2023-02-06T11:16:19.300Z,25.30
2023-02-06T11:17:19.298Z,25.71
2023-02-06T11:18:19.288Z,25.39
2023-02-06T11:19:19.273Z,25.32
2023-02-06T11:20:19.270Z,25.42
2023-02-06T11:21:19.306Z,25.52
2023-02-06T11:22:19.261Z,25.39
2023-02-06T11:23:19.270Z,25.30
2023-02-06T11:24:19.242Z,25.57
2023-02-06T11:25:19.231Z,25.64
2023-02-06T11:26:19.279Z,25.75
2023-02-06T11:27:19.227Z,26.05
2023-02-06T11:28:19.273Z,26.01
2023-02-06T11:29:19.235Z,25.71
2023-02-06T11:30:19.218Z,25.93
2023-02-06T11:31:19.258Z,26.25
2023-02-06T11:32:19.210Z,26.09
2023-02-06T11:33:19.189Z,26.08
2023-02-06T11:34:19.246Z,26.27
2023-02-06T11:35:19.189Z,26.42
2023-02-06T11:36:19.177Z,26.84
2023-02-06T11:37:19.182Z,26.43
2023-02-06T11:38:19.169Z,25.17
2023-02-06T11:39:19.164Z,24.20
2023-02-06T11:40:19.177Z,24.23
2023-02-06T11:41:19.157Z,24.97
2023-02-06T11:42:19.139Z,25.22
2023-02-06T11:43:19.155Z,25.61
2023-02-06T11:44:19.119Z,25.62
2023-02-06T11:45:19.131Z,25.72
2023-02-06T11:46:19.213Z,26.05
2023-02-06T11:47:19.124Z,25.94
2023-02-06T11:48:19.113Z,25.61
2023-02-06T11:49:19.129Z,25.61
2023-02-06T11:50:19.092Z,25.61
2023-02-06T11:51:19.105Z,25.52
2023-02-06T11:52:19.094Z,25.07
2023-02-06T11:53:19.085Z,24.57
2023-02-06T11:54:19.076Z,24.87
2023-02-06T11:55:19.074Z,24.61
2023-02-06T11:56:19.084Z,24.38
2023-02-06T11:57:19.059Z,23.83
2023-02-06T11:58:19.058Z,23.70
2023-02-06T11:59:19.051Z,24.27
2023-02-06T12:00:19.073Z,25.00
2023-02-06T12:01:19.061Z,25.07
2023-02-06T12:02:19.070Z,25.01
2023-02-06T12:03:19.049Z,25.07
2023-02-06T12:04:19.030Z,25.32
2023-02-06T12:05:19.009Z,25.07
2023-02-06T12:06:19.039Z,24.98
2023-02-06T12:07:19.002Z,23.95
2023-02-06T12:08:19.006Z,24.05
2023-02-06T12:09:18.989Z,23.94
2023-02-06T12:10:18.997Z,23.87
2023-02-06T12:11:18.981Z,24.19
2023-02-06T12:12:19.011Z,24.31
2023-02-06T12:13:18.974Z,24.22
2023-02-06T12:14:19.339Z,24.32
2023-02-06T12:15:43.734Z,24.23
2023-02-06T12:16:20.977Z,24.39
2023-02-06T12:17:18.960Z,24.68
2023-02-06T12:18:18.950Z,25.09
2023-02-06T12:19:18.939Z,25.34
2023-02-06T12:20:18.928Z,25.17
2023-02-06T12:21:18.927Z,24.76
2023-02-06T12:22:19.011Z,25.05
2023-02-06T12:23:18.916Z,25.49
2023-02-06T12:24:18.910Z,26.01
2023-02-06T12:25:18.908Z,25.22
2023-02-06T12:26:18.894Z,25.64
2023-02-06T12:27:18.903Z,25.77
2023-02-06T12:28:18.953Z,25.90
2023-02-06T12:29:18.873Z,26.32
2023-02-06T12:30:18.873Z,26.39
2023-02-06T12:31:19.151Z,26.32
2023-02-06T12:32:18.879Z,25.43
2023-02-06T12:33:18.909Z,25.20
2023-02-06T12:34:18.850Z,25.12
2023-02-06T12:35:18.850Z,25.06
2023-02-06T12:36:18.847Z,25.01
2023-02-06T12:37:18.837Z,25.13
2023-02-06T12:38:18.821Z,24.71
2023-02-06T12:39:18.814Z,24.01
2023-02-06T12:40:18.809Z,24.00
2023-02-06T12:41:18.807Z,23.72
2023-02-06T12:42:18.813Z,24.02
2023-02-06T12:43:18.809Z,24.29
2023-02-06T12:44:18.785Z,25.07
2023-02-06T12:45:18.797Z,25.39
2023-02-06T12:46:19.367Z,25.50
2023-02-06T12:47:18.770Z,25.72
2023-02-06T12:48:18.768Z,25.54
2023-02-06T12:49:18.759Z,25.35
2023-02-06T12:50:18.768Z,25.42
2023-02-06T12:51:18.805Z,25.30
2023-02-06T12:52:18.743Z,23.82
2023-02-06T12:53:18.733Z,23.24
2023-02-06T12:54:18.728Z,21.98
2023-02-06T12:55:18.752Z,22.10
2023-02-06T12:56:18.742Z,22.46
2023-02-06T12:57:18.711Z,21.78
2023-02-06T12:58:18.698Z,20.76
2023-02-06T12:59:18.705Z,20.96
2023-02-06T13:00:18.702Z,21.06
2023-02-06T13:01:29.350Z,21.74
2023-02-06T13:02:20.823Z,22.38
2023-02-06T13:03:18.690Z,22.43
2023-02-06T13:04:18.693Z,22.83
2023-02-06T13:05:18.668Z,23.08
2023-02-06T13:06:18.676Z,22.74
2023-02-06T13:07:18.668Z,23.07
2023-02-06T13:08:18.670Z,22.74
2023-02-06T13:09:18.659Z,22.80
2023-02-06T13:10:18.644Z,22.68
2023-02-06T13:11:18.638Z,22.80